Airport View

Enter AWOS ICAO identifier for current METAR.

ex. KFNL

KMRH 191858Z AUTO 26009KT 10SM FEW023 SCT028 OVC050 17/13 A2982 RMK AO2 SLP099 T01720133

19 Jan 2020 19:23

Frequency: 135.375

Phone: 252-728-2055

Other Area AWOS: KNKT - KNJM - KNBT - KEWN

TAF AMD KNKT 1915/2015 27015G25KT 9999 SCT030 BKN050 QNH2988INS TEMPO 1915/1919 4800 RA BR BKN020 OVC030 BECMG 1918/1920 34010KT 9999 FEW100 QNH3000INS T17/1919Z TM01/2013Z AMD 1540